Time;durP1;ratioP1;P1;durP2;ratioP2;P2;SDS_P1;SDS_P2;PMS_P1;PMS_P2;Temp;Humidity;BMP_temperature;BMP_pressure;BME280_temperature;BME280_humidity;BME280_pressure;Samples;Min_cycle;Max_cycle;Signal;HPM_P1;HPM_P2
2021/01/08 00:04:48;;;;;;;13.55;9.85;;;;;;;;;;4727086;28;20433;-57
2021/01/08 00:07:14;;;;;;;16.20;9.30;;;;;;;;;;4198694;34;20098;-57
2021/01/08 00:09:40;;;;;;;14.43;9.88;;;;;;;;;;4193339;34;20137;-57
2021/01/08 00:12:06;;;;;;;14.43;9.73;;;;;;;;;;4188797;34;20148;-56
2021/01/08 00:14:33;;;;;;;14.93;10.15;;;;;;;;;;4180093;34;20118;-57
2021/01/08 00:16:59;;;;;;;12.45;8.85;;;;;;;;;;4178563;34;20098;-58
2021/01/08 00:19:24;;;;;;;15.13;10.15;;;;;;;;;;4178552;34;20135;-57
2021/01/08 00:21:50;;;;;;;14.73;10.10;;;;;;;;;;4181921;34;20144;-58
2021/01/08 00:24:16;;;;;;;13.43;9.57;;;;;;;;;;4192124;34;20118;-57
2021/01/08 00:26:42;;;;;;;11.65;9.40;;;;;;;;;;4190852;34;20250;-57
2021/01/08 00:29:12;;;;;;;15.68;10.60;;;;;;;;;;4192087;34;20114;-57
2021/01/08 00:31:41;;;;;;;14.50;10.57;;;;;;;;;;4192177;34;20201;-57
2021/01/08 00:34:07;;;;;;;16.80;9.65;;;;;;;;;;4192214;34;20118;-58
2021/01/08 00:36:33;;;;;;;15.75;9.63;;;;;;;;;;4190712;34;20118;-58
2021/01/08 00:38:59;;;;;;;15.10;9.48;;;;;;;;;;4188569;34;20118;-58
2021/01/08 00:41:29;;;;;;;14.95;9.88;;;;;;;;;;4178337;34;20118;-56
2021/01/08 00:43:55;;;;;;;13.02;9.63;;;;;;;;;;4178314;34;20122;-60
2021/01/08 00:46:28;;;;;;;13.93;10.25;;;;;;;;;;4178247;34;20106;-56
2021/01/08 00:48:54;;;;;;;13.75;9.73;;;;;;;;;;4176982;34;20110;-57
2021/01/08 00:51:22;;;;;;;16.27;9.10;;;;;;;;;;4176848;34;20234;-58
2021/01/08 00:53:48;;;;;;;14.73;9.40;;;;;;;;;;4178260;34;20462;-58
2021/01/08 00:56:20;;;;;;;13.35;9.40;;;;;;;;;;4176865;34;20150;-58
2021/01/08 00:58:46;;;;;;;13.02;8.93;;;;;;;;;;4165827;34;20103;-58
2021/01/08 01:01:13;;;;;;;14.93;10.07;;;;;;;;;;4176747;34;20471;-59
2021/01/08 01:03:38;;;;;;;13.38;9.02;;;;;;;;;;4176674;34;20142;-58
2021/01/08 01:06:05;;;;;;;13.55;9.80;;;;;;;;;;4184762;34;20762;-58
2021/01/08 01:08:31;;;;;;;12.50;9.10;;;;;;;;;;4192197;34;20117;-58
2021/01/08 01:10:57;;;;;;;12.90;8.82;;;;;;;;;;4190275;34;20453;-59
2021/01/08 01:13:23;;;;;;;11.00;8.57;;;;;;;;;;4179211;34;20483;-58
2021/01/08 01:15:49;;;;;;;12.93;8.85;;;;;;;;;;4190151;34;20097;-59
2021/01/08 01:18:15;;;;;;;13.88;10.52;;;;;;;;;;4179051;34;20192;-59
2021/01/08 01:20:41;;;;;;;11.75;8.55;;;;;;;;;;4191761;34;20113;-58
2021/01/08 01:23:07;;;;;;;13.68;9.57;;;;;;;;;;4191743;34;20122;-58
2021/01/08 01:25:33;;;;;;;15.05;10.05;;;;;;;;;;4191592;34;20110;-58
2021/01/08 01:27:59;;;;;;;13.55;9.52;;;;;;;;;;4190007;34;20525;-59
2021/01/08 01:30:24;;;;;;;12.90;8.07;;;;;;;;;;4190292;34;20218;-59
2021/01/08 01:32:50;;;;;;;11.57;8.63;;;;;;;;;;4191680;34;20133;-59
2021/01/08 01:35:16;;;;;;;11.98;8.68;;;;;;;;;;4191412;34;20129;-59
2021/01/08 01:37:42;;;;;;;11.52;8.00;;;;;;;;;;4190224;34;20093;-59
2021/01/08 01:40:08;;;;;;;12.30;8.77;;;;;;;;;;4178483;34;20525;-59
2021/01/08 01:42:34;;;;;;;11.12;8.52;;;;;;;;;;4190499;34;20210;-59
2021/01/08 01:45:00;;;;;;;11.18;8.32;;;;;;;;;;4190198;34;20098;-59
2021/01/08 01:47:27;;;;;;;11.65;7.68;;;;;;;;;;4190232;34;20539;-58
2021/01/08 01:49:53;;;;;;;13.45;8.43;;;;;;;;;;4190291;34;20121;-58
2021/01/08 01:52:19;;;;;;;12.98;8.93;;;;;;;;;;4190100;34;20538;-58
2021/01/08 01:54:45;;;;;;;10.10;7.80;;;;;;;;;;4190052;34;20187;-59
2021/01/08 01:57:11;;;;;;;11.73;9.23;;;;;;;;;;4189994;34;20114;-59
2021/01/08 01:59:37;;;;;;;12.50;8.88;;;;;;;;;;4191383;34;20138;-59
2021/01/08 02:02:07;;;;;;;11.40;9.65;;;;;;;;;;4189978;34;20312;-59
2021/01/08 02:04:33;;;;;;;11.68;8.82;;;;;;;;;;4178790;34;20122;-59
2021/01/08 02:06:59;;;;;;;13.02;9.68;;;;;;;;;;4176425;34;20098;-59
2021/01/08 02:09:25;;;;;;;13.23;9.05;;;;;;;;;;4176128;34;20217;-58
2021/01/08 02:11:53;;;;;;;13.07;9.77;;;;;;;;;;4176249;34;20184;-59
2021/01/08 02:14:24;;;;;;;15.10;9.55;;;;;;;;;;4176087;34;20400;-59
2021/01/08 02:16:50;;;;;;;12.18;9.52;;;;;;;;;;4165279;34;20118;-60
2021/01/08 02:19:28;;;;;;;14.52;11.07;;;;;;;;;;4176409;34;20434;-59
2021/01/08 02:22:25;;;;;;;13.95;10.95;;;;;;;;;;4153701;34;20535;-59
2021/01/08 02:24:57;;;;;;;12.90;9.90;;;;;;;;;;4148147;34;20127;-59
2021/01/08 02:27:23;;;;;;;13.15;9.77;;;;;;;;;;4176154;34;20149;-59
2021/01/08 02:29:50;;;;;;;13.45;10.43;;;;;;;;;;4164823;34;20111;-59
2021/01/08 02:32:16;;;;;;;13.93;10.93;;;;;;;;;;4164759;34;20124;-59
2021/01/08 02:34:42;;;;;;;13.52;10.68;;;;;;;;;;4164641;34;20525;-59
2021/01/08 02:37:08;;;;;;;16.15;11.98;;;;;;;;;;4164902;34;20118;-58
2021/01/08 02:39:33;;;;;;;13.85;10.60;;;;;;;;;;4175243;34;20201;-60
2021/01/08 02:41:59;;;;;;;14.75;10.75;;;;;;;;;;4164666;34;20187;-59
2021/01/08 02:44:25;;;;;;;12.20;9.95;;;;;;;;;;4164559;34;20221;-59
2021/01/08 02:46:51;;;;;;;14.73;10.27;;;;;;;;;;4177374;34;20126;-59
2021/01/08 02:49:17;;;;;;;13.43;11.07;;;;;;;;;;4177195;34;20118;-58
2021/01/08 02:51:43;;;;;;;14.90;11.35;;;;;;;;;;4176188;34;20182;-59
2021/01/08 02:54:09;;;;;;;11.57;9.70;;;;;;;;;;4175756;34;20122;-58
2021/01/08 02:56:38;;;;;;;13.38;10.38;;;;;;;;;;4175782;34;20519;-59
2021/01/08 02:59:04;;;;;;;15.07;10.57;;;;;;;;;;4164558;34;20223;-59
2021/01/08 03:01:30;;;;;;;16.25;11.25;;;;;;;;;;4164532;34;20110;-59
2021/01/08 03:03:59;;;;;;;13.38;10.73;;;;;;;;;;4175610;34;20152;-59
2021/01/08 03:06:29;;;;;;;14.52;10.43;;;;;;;;;;4166462;34;20115;-59
2021/01/08 03:08:59;;;;;;;13.75;10.40;;;;;;;;;;4177937;34;20436;-58
2021/01/08 03:11:25;;;;;;;15.25;11.82;;;;;;;;;;4190690;34;20117;-58
2021/01/08 03:13:51;;;;;;;14.75;11.30;;;;;;;;;;4189390;34;20458;-59
2021/01/08 03:16:18;;;;;;;14.63;11.52;;;;;;;;;;4178219;34;20100;-59
2021/01/08 03:18:45;;;;;;;16.73;12.00;;;;;;;;;;4155561;34;20102;-58
2021/01/08 03:21:11;;;;;;;15.75;12.13;;;;;;;;;;4178013;34;20181;-58
2021/01/08 03:23:37;;;;;;;14.32;11.65;;;;;;;;;;4177907;34;20463;-58
2021/01/08 03:26:03;;;;;;;14.13;11.70;;;;;;;;;;4189153;34;20102;-59
2021/01/08 03:28:29;;;;;;;15.70;11.10;;;;;;;;;;4189485;34;20202;-58
2021/01/08 03:30:55;;;;;;;15.38;11.70;;;;;;;;;;4189178;34;20132;-61
2021/01/08 03:33:21;;;;;;;15.05;11.90;;;;;;;;;;4166382;34;20217;-60
2021/01/08 03:35:47;;;;;;;17.35;12.60;;;;;;;;;;4190311;34;20114;-59
2021/01/08 03:38:13;;;;;;;13.25;11.35;;;;;;;;;;4189404;34;20134;-59
2021/01/08 03:40:41;;;;;;;14.45;11.32;;;;;;;;;;4189136;34;20114;-59
2021/01/08 03:43:08;;;;;;;16.30;12.30;;;;;;;;;;4188972;34;20459;-59
2021/01/08 03:45:34;;;;;;;15.50;11.10;;;;;;;;;;4177825;34;20107;-58
2021/01/08 03:48:00;;;;;;;15.32;12.35;;;;;;;;;;4189027;34;20542;-60
2021/01/08 03:50:26;;;;;;;15.38;11.77;;;;;;;;;;4191910;34;20121;-59
2021/01/08 03:52:52;;;;;;;15.45;11.50;;;;;;;;;;4192502;34;20129;-59
2021/01/08 03:55:18;;;;;;;15.07;12.65;;;;;;;;;;4168515;34;20137;-59
2021/01/08 03:57:43;;;;;;;18.35;12.35;;;;;;;;;;4192414;34;20103;-58
2021/01/08 04:00:10;;;;;;;17.83;13.13;;;;;;;;;;4192364;34;20505;-59
2021/01/08 04:02:36;;;;;;;18.00;13.55;;;;;;;;;;4179631;34;20102;-58
2021/01/08 04:05:02;;;;;;;16.67;12.35;;;;;;;;;;4192216;34;20186;-58
2021/01/08 04:07:28;;;;;;;20.75;13.15;;;;;;;;;;4192283;34;20447;-59
2021/01/08 04:09:54;;;;;;;14.70;12.25;;;;;;;;;;4192311;34;20095;-59
2021/01/08 04:12:20;;;;;;;17.77;12.98;;;;;;;;;;4179665;34;20082;-59
2021/01/08 04:14:46;;;;;;;15.85;12.23;;;;;;;;;;4190782;34;20129;-59
2021/01/08 04:17:12;;;;;;;17.95;12.80;;;;;;;;;;4179793;34;20134;-59
2021/01/08 04:19:38;;;;;;;19.02;12.98;;;;;;;;;;4190824;34;20626;-60
2021/01/08 04:22:03;;;;;;;15.30;11.63;;;;;;;;;;4192274;34;20206;-58
2021/01/08 04:24:29;;;;;;;16.55;12.40;;;;;;;;;;4192138;34;20115;-59
2021/01/08 04:26:55;;;;;;;17.58;11.73;;;;;;;;;;4168047;34;20106;-60
2021/01/08 04:29:21;;;;;;;21.50;14.07;;;;;;;;;;4192154;34;20116;-58
2021/01/08 04:31:47;;;;;;;17.67;13.07;;;;;;;;;;4190790;34;20727;-59
2021/01/08 04:34:13;;;;;;;20.58;12.65;;;;;;;;;;4190636;34;20110;-58
2021/01/08 04:36:39;;;;;;;16.60;12.20;;;;;;;;;;4192292;34;20203;-59
2021/01/08 04:39:05;;;;;;;20.70;13.15;;;;;;;;;;4179247;34;20105;-60
2021/01/08 04:41:31;;;;;;;17.62;14.02;;;;;;;;;;4190978;34;20118;-59
2021/01/08 04:43:58;;;;;;;20.23;12.37;;;;;;;;;;4191993;34;20097;-59
2021/01/08 04:46:31;;;;;;;15.35;11.68;;;;;;;;;;4179229;34;20118;-59
2021/01/08 04:49:15;;;;;;;18.12;12.95;;;;;;;;;;4190641;34;20101;-60
2021/01/08 04:51:41;;;;;;;18.08;12.05;;;;;;;;;;4179284;34;20110;-59
2021/01/08 04:54:07;;;;;;;16.40;12.48;;;;;;;;;;4179098;34;20199;-59
2021/01/08 04:56:42;;;;;;;18.77;13.00;;;;;;;;;;4190418;34;20106;-59
2021/01/08 04:59:08;;;;;;;;;;;;;;;;;;4179815;34;20457;-59
2021/01/08 05:01:35;;;;;;;19.12;12.40;;;;;;;;;;4191583;34;19974;-60
2021/01/08 05:04:01;;;;;;;20.52;14.48;;;;;;;;;;4190522;34;20105;-60
2021/01/08 05:06:27;;;;;;;19.30;13.68;;;;;;;;;;4190463;34;20198;-59
2021/01/08 05:08:53;;;;;;;18.23;12.75;;;;;;;;;;4178998;34;20125;-61
2021/01/08 05:11:20;;;;;;;19.08;12.75;;;;;;;;;;4178890;34;20281;-60
2021/01/08 05:14:07;;;;;;;18.25;12.37;;;;;;;;;;4190344;34;20098;-59
2021/01/08 05:16:33;;;;;;;19.12;12.77;;;;;;;;;;4191796;34;20178;-59
2021/01/08 05:19:01;;;;;;;15.95;11.85;;;;;;;;;;4178851;34;20175;-59
2021/01/08 05:21:27;;;;;;;17.23;11.82;;;;;;;;;;4179194;34;20420;-59
2021/01/08 05:23:54;;;;;;;16.60;11.63;;;;;;;;;;4190504;34;20089;-59
2021/01/08 05:26:20;;;;;;;20.02;12.85;;;;;;;;;;4190147;34;20095;-59
2021/01/08 05:28:47;;;;;;;16.27;11.25;;;;;;;;;;4190266;34;20117;-59
2021/01/08 05:31:13;;;;;;;18.17;12.75;;;;;;;;;;4191509;34;20157;-59
2021/01/08 05:33:40;;;;;;;17.08;12.00;;;;;;;;;;4178963;34;20090;-59
2021/01/08 05:36:06;;;;;;;16.50;12.20;;;;;;;;;;4190220;34;20226;-59
2021/01/08 05:38:32;;;;;;;16.23;11.73;;;;;;;;;;4190500;34;20428;-59
2021/01/08 05:41:02;;;;;;;15.98;10.88;;;;;;;;;;4178605;34;20213;-60
2021/01/08 05:43:32;;;;;;;16.42;11.73;;;;;;;;;;4156639;34;20121;-60
2021/01/08 05:46:32;;;;;;;16.30;10.95;;;;;;;;;;4190165;34;20153;-59
2021/01/08 05:49:01;;;;;;;17.62;10.75;;;;;;;;;;4173785;34;20121;-59
2021/01/08 05:51:29;;;;;;;16.35;11.27;;;;;;;;;;4178636;34;20586;-59
2021/01/08 05:53:58;;;;;;;14.43;11.12;;;;;;;;;;4178714;34;20510;-60
2021/01/08 05:56:24;;;;;;;16.73;11.63;;;;;;;;;;4190122;34;20142;-58
2021/01/08 05:58:50;;;;;;;15.25;10.77;;;;;;;;;;4190023;34;20197;-59
2021/01/08 06:01:16;;;;;;;16.20;10.93;;;;;;;;;;4178311;34;20090;-59
2021/01/08 06:03:43;;;;;;;16.52;11.98;;;;;;;;;;4191730;34;20130;-59
2021/01/08 06:06:10;;;;;;;15.63;11.63;;;;;;;;;;4189774;34;20134;-59
2021/01/08 06:08:43;;;;;;;18.23;11.18;;;;;;;;;;4191404;34;20105;-59
2021/01/08 06:11:19;;;;;;;15.70;10.88;;;;;;;;;;4178558;34;20539;-60
2021/01/08 06:13:52;;;;;;;15.88;10.93;;;;;;;;;;4190336;34;20145;-60
2021/01/08 06:16:19;;;;;;;14.80;11.02;;;;;;;;;;4189806;34;20120;-60
2021/01/08 06:18:47;;;;;;;16.85;11.05;;;;;;;;;;4189934;34;20090;-59
2021/01/08 06:21:13;;;;;;;17.37;12.00;;;;;;;;;;4189859;34;20432;-59
2021/01/08 06:23:47;;;;;;;18.45;11.35;;;;;;;;;;4167259;34;20186;-60
2021/01/08 06:26:14;;;;;;;18.27;11.60;;;;;;;;;;4190933;34;20118;-59
2021/01/08 06:28:47;;;;;;;19.75;11.50;;;;;;;;;;4191265;34;20097;-60
2021/01/08 06:31:25;;;;;;;18.17;12.68;;;;;;;;;;4190970;34;20137;-60
2021/01/08 06:33:54;;;;;;;17.70;12.25;;;;;;;;;;4191352;34;20221;-60
2021/01/08 06:36:25;;;;;;;14.00;9.88;;;;;;;;;;4189163;34;20504;-60
2021/01/08 06:38:55;;;;;;;16.00;11.10;;;;;;;;;;4177590;34;20110;-60
2021/01/08 06:41:21;;;;;;;18.17;11.20;;;;;;;;;;4190976;34;20553;-60
2021/01/08 06:43:53;;;;;;;17.50;10.60;;;;;;;;;;4191080;34;20172;-60
2021/01/08 06:46:30;;;;;;;16.30;11.30;;;;;;;;;;4156301;34;20129;-61
2021/01/08 06:48:58;;;;;;;17.65;12.05;;;;;;;;;;4190951;34;20110;-59
2021/01/08 06:51:34;;;;;;;17.65;11.43;;;;;;;;;;4178311;34;20098;-60
2021/01/08 06:54:04;;;;;;;19.00;12.07;;;;;;;;;;4166754;34;20126;-59
2021/01/08 06:56:32;;;;;;;15.75;10.82;;;;;;;;;;4189386;34;20105;-59
2021/01/08 06:58:58;;;;;;;19.58;11.02;;;;;;;;;;4178334;34;20120;-60
2021/01/08 07:01:53;;;;;;;17.65;12.55;;;;;;;;;;4189337;34;20094;-59
2021/01/08 07:04:30;;;;;;;20.23;12.15;;;;;;;;;;4189496;34;20121;-59
2021/01/08 07:07:03;;;;;;;18.80;12.05;;;;;;;;;;4189658;34;20438;-59
2021/01/08 07:09:30;;;;;;;25.15;12.57;;;;;;;;;;4189260;34;20121;-59
2021/01/08 07:11:57;;;;;;;20.33;12.93;;;;;;;;;;4166764;34;20438;-60
2021/01/08 07:14:23;;;;;;;21.65;12.27;;;;;;;;;;4189402;34;20102;-60
2021/01/08 07:16:51;;;;;;;21.17;11.35;;;;;;;;;;4190653;34;20107;-60
2021/01/08 07:19:19;;;;;;;21.85;12.35;;;;;;;;;;4166520;34;20124;-60
2021/01/08 07:21:51;;;;;;;19.87;12.68;;;;;;;;;;4155232;34;20545;-59
2021/01/08 07:24:25;;;;;;;19.30;11.48;;;;;;;;;;4178159;34;20106;-61
2021/01/08 07:26:52;;;;;;;19.15;10.95;;;;;;;;;;4180116;34;20114;-60
2021/01/08 07:29:26;;;;;;;19.65;10.88;;;;;;;;;;4191108;34;20487;-60
2021/01/08 07:31:52;;;;;;;20.67;11.63;;;;;;;;;;4168660;34;20541;-60
2021/01/08 07:34:18;;;;;;;18.40;13.68;;;;;;;;;;4168432;34;20196;-60
2021/01/08 07:36:44;;;;;;;19.02;13.18;;;;;;;;;;4191392;34;20529;-59
2021/01/08 07:39:42;;;;;;;23.73;14.80;;;;;;;;;;4179557;34;20225;-60
2021/01/08 07:42:30;;;;;;;21.75;14.85;;;;;;;;;;4191296;34;20149;-59
2021/01/08 07:44:56;;;;;;;28.12;13.43;;;;;;;;;;4179869;34;20205;-60
2021/01/08 07:47:25;;;;;;;16.02;12.00;;;;;;;;;;4191186;34;20228;-60
2021/01/08 07:50:24;;;;;;;23.40;11.43;;;;;;;;;;4191020;34;20282;-61
2021/01/08 07:52:50;;;;;;;17.98;9.98;;;;;;;;;;4153276;34;20099;-60
2021/01/08 07:55:39;;;;;;;18.62;10.02;;;;;;;;;;4190782;34;20494;-60
2021/01/08 07:58:05;;;;;;;24.77;10.77;;;;;;;;;;4177571;34;20149;-60
2021/01/08 08:00:32;;;;;;;19.73;10.93;;;;;;;;;;4191034;34;20522;-61
2021/01/08 08:02:59;;;;;;;23.52;12.13;;;;;;;;;;4190999;34;20097;-61
2021/01/08 08:05:26;;;;;;;23.80;13.32;;;;;;;;;;4179054;34;20129;-61
2021/01/08 08:08:02;;;;;;;24.65;13.77;;;;;;;;;;4192136;34;20097;-61
2021/01/08 08:10:30;;;;;;;21.67;14.38;;;;;;;;;;4190850;34;20091;-60
2021/01/08 08:12:56;;;;;;;22.02;11.98;;;;;;;;;;4157049;34;20106;-60
2021/01/08 08:15:22;;;;;;;20.05;10.98;;;;;;;;;;4192179;34;20118;-60
2021/01/08 08:17:48;;;;;;;14.75;10.50;;;;;;;;;;4179394;34;20545;-60
2021/01/08 08:20:22;;;;;;;17.98;10.15;;;;;;;;;;4179362;34;20522;-61
2021/01/08 08:22:48;;;;;;;22.52;11.55;;;;;;;;;;4179516;34;20152;-60
2021/01/08 08:25:44;;;;;;;22.13;11.05;;;;;;;;;;4179210;34;20130;-61
2021/01/08 08:28:10;;;;;;;24.08;12.10;;;;;;;;;;4189020;34;20102;-61
2021/01/08 08:30:36;;;;;;;22.00;12.60;;;;;;;;;;4190648;34;20663;-60
2021/01/08 08:33:05;;;;;;;23.00;13.35;;;;;;;;;;4192090;34;20503;-61
2021/01/08 08:35:34;;;;;;;24.60;14.13;;;;;;;;;;4191490;34;20138;-61
2021/01/08 08:38:00;;;;;;;26.33;14.18;;;;;;;;;;4178951;34;20098;-60
2021/01/08 08:40:27;;;;;;;20.67;13.10;;;;;;;;;;4179468;34;20130;-60
2021/01/08 08:43:00;;;;;;;18.33;12.57;;;;;;;;;;4168188;34;20198;-61
2021/01/08 08:45:33;;;;;;;27.80;15.07;;;;;;;;;;4167961;34;20137;-60
2021/01/08 08:48:01;;;;;;;32.15;16.27;;;;;;;;;;4190659;34;20092;-61
2021/01/08 08:50:27;;;;;;;24.55;14.00;;;;;;;;;;4167904;34;20157;-60
2021/01/08 08:52:53;;;;;;;25.20;13.13;;;;;;;;;;4179150;34;20102;-60
2021/01/08 08:55:26;;;;;;;25.75;11.07;;;;;;;;;;4191759;34;20110;-61
2021/01/08 08:58:01;;;;;;;16.27;9.63;;;;;;;;;;4190462;34;20527;-60
2021/01/08 09:00:28;;;;;;;17.17;9.00;;;;;;;;;;4190705;34;20109;-61
2021/01/08 09:02:54;;;;;;;23.42;9.90;;;;;;;;;;4187776;34;20122;-60
2021/01/08 09:05:20;;;;;;;18.48;9.48;;;;;;;;;;4190033;34;20110;-60
2021/01/08 09:07:50;;;;;;;16.65;8.02;;;;;;;;;;4178459;34;20199;-60
2021/01/08 09:10:19;;;;;;;19.80;8.82;;;;;;;;;;4190435;34;20141;-60
2021/01/08 09:12:48;;;;;;;18.00;9.75;;;;;;;;;;4191776;34;20114;-60
2021/01/08 09:15:22;;;;;;;22.65;8.65;;;;;;;;;;4178618;34;20138;-61
2021/01/08 09:17:49;;;;;;;16.05;8.13;;;;;;;;;;4203980;34;20117;-61
2021/01/08 09:20:15;;;;;;;19.33;9.02;;;;;;;;;;4204163;34;20121;-60
2021/01/08 09:22:41;;;;;;;18.15;8.55;;;;;;;;;;4205407;34;20105;-60
2021/01/08 09:25:08;;;;;;;19.70;8.93;;;;;;;;;;4203897;34;20540;-60
2021/01/08 09:27:35;;;;;;;21.02;9.23;;;;;;;;;;4191455;34;20160;-61
2021/01/08 09:30:11;;;;;;;20.12;9.73;;;;;;;;;;4203580;34;20208;-61
2021/01/08 09:32:37;;;;;;;22.85;10.00;;;;;;;;;;4203980;34;20209;-60
2021/01/08 09:35:07;;;;;;;23.17;9.45;;;;;;;;;;4191853;34;20117;-61
2021/01/08 09:37:50;;;;;;;22.87;8.70;;;;;;;;;;4192357;34;20105;-60
2021/01/08 09:40:20;;;;;;;25.67;9.75;;;;;;;;;;4192541;34;20102;-61
2021/01/08 09:42:46;;;;;;;28.87;9.52;;;;;;;;;;4192543;34;20213;-60
2021/01/08 09:45:27;;;;;;;26.40;10.75;;;;;;;;;;4192314;34;20125;-62
2021/01/08 09:47:54;;;;;;;20.25;9.50;;;;;;;;;;4203638;34;20463;-61
2021/01/08 09:50:27;;;;;;;25.15;9.55;;;;;;;;;;4180824;34;20116;-60
2021/01/08 09:52:58;;;;;;;19.83;10.38;;;;;;;;;;4171843;34;20138;-61
2021/01/08 09:55:28;;;;;;;25.77;9.90;;;;;;;;;;4189446;34;20190;-61
2021/01/08 09:57:59;;;;;;;28.12;10.93;;;;;;;;;;4191420;34;20279;-60
2021/01/08 10:00:38;;;;;;;25.88;10.73;;;;;;;;;;4178439;34;20109;-60
2021/01/08 10:03:04;;;;;;;18.80;10.07;;;;;;;;;;4191250;34;20095;-59
2021/01/08 10:05:35;;;;;;;18.70;9.88;;;;;;;;;;4189751;34;20117;-57
2021/01/08 10:08:02;;;;;;;22.52;10.70;;;;;;;;;;4194078;34;20624;-57
2021/01/08 10:10:28;;;;;;;21.30;11.10;;;;;;;;;;4189818;34;20126;-58
2021/01/08 10:12:58;;;;;;;25.75;11.27;;;;;;;;;;4203785;34;20138;-61
2021/01/08 10:15:37;;;;;;;29.10;12.60;;;;;;;;;;4203489;34;20465;-63
2021/01/08 10:18:15;;;;;;;33.70;13.68;;;;;;;;;;4204903;34;20102;-62
2021/01/08 10:20:42;;;;;;;32.03;13.35;;;;;;;;;;4204945;34;20475;-63
2021/01/08 10:23:12;;;;;;;31.67;13.15;;;;;;;;;;4203521;34;20450;-62
2021/01/08 10:25:38;;;;;;;32.90;13.80;;;;;;;;;;4203188;34;20126;-62
2021/01/08 10:28:24;;;;;;;25.77;13.43;;;;;;;;;;4203502;34;20122;-62
2021/01/08 10:30:51;;;;;;;24.73;12.60;;;;;;;;;;4204710;34;20174;-62
2021/01/08 10:33:17;;;;;;;29.30;13.82;;;;;;;;;;4203515;34;20125;-62
2021/01/08 10:35:52;;;;;;;30.33;13.82;;;;;;;;;;4180106;34;20118;-61
2021/01/08 10:38:18;;;;;;;24.55;13.62;;;;;;;;;;4204803;34;20122;-60
2021/01/08 10:40:44;;;;;;;24.70;13.35;;;;;;;;;;4204517;34;20509;-61
2021/01/08 10:43:10;;;;;;;22.50;12.93;;;;;;;;;;4204765;34;20129;-61
2021/01/08 10:45:36;;;;;;;27.62;13.00;;;;;;;;;;4204487;34;20118;-61
2021/01/08 10:48:04;;;;;;;31.05;12.65;;;;;;;;;;4204650;34;20197;-60
2021/01/08 10:50:30;;;;;;;22.08;12.15;;;;;;;;;;4204538;34;20109;-60
2021/01/08 10:52:56;;;;;;;22.13;11.80;;;;;;;;;;4203355;34;20124;-62
2021/01/08 10:55:22;;;;;;;25.77;13.52;;;;;;;;;;4204413;34;20105;-61
2021/01/08 10:57:48;;;;;;;24.90;13.45;;;;;;;;;;4204516;34;20106;-61
2021/01/08 11:00:17;;;;;;;25.27;12.98;;;;;;;;;;4191143;34;20102;-60
2021/01/08 11:02:43;;;;;;;27.58;12.85;;;;;;;;;;4204471;34;20113;-60
2021/01/08 11:05:09;;;;;;;25.00;12.23;;;;;;;;;;4204620;34;20157;-60
2021/01/08 11:07:35;;;;;;;22.25;12.52;;;;;;;;;;4194206;34;20103;-60
2021/01/08 11:10:02;;;;;;;23.95;12.82;;;;;;;;;;4190610;34;20133;-60
2021/01/08 11:12:28;;;;;;;27.30;14.48;;;;;;;;;;4202105;34;20454;-59
2021/01/08 11:14:55;;;;;;;26.95;13.32;;;;;;;;;;4203217;34;20574;-60
2021/01/08 11:17:21;;;;;;;26.08;14.80;;;;;;;;;;4204033;34;20082;-60
2021/01/08 11:19:47;;;;;;;23.85;13.70;;;;;;;;;;4204345;34;20108;-60
2021/01/08 11:22:13;;;;;;;29.87;15.32;;;;;;;;;;4204180;34;20164;-60
2021/01/08 11:24:40;;;;;;;23.52;12.95;;;;;;;;;;4203959;34;20529;-60
2021/01/08 11:27:06;;;;;;;24.73;13.95;;;;;;;;;;4203921;34;20118;-60
2021/01/08 11:29:32;;;;;;;20.85;11.88;;;;;;;;;;4204245;34;20121;-60
2021/01/08 11:31:58;;;;;;;28.35;13.30;;;;;;;;;;4204266;34;20144;-60
2021/01/08 11:34:24;;;;;;;23.87;13.85;;;;;;;;;;4204401;34;20149;-60
2021/01/08 11:36:55;;;;;;;24.65;14.85;;;;;;;;;;4203690;34;20714;-61
2021/01/08 11:39:21;;;;;;;22.60;14.02;;;;;;;;;;4200840;34;20586;-61
2021/01/08 11:41:47;;;;;;;21.30;13.65;;;;;;;;;;4203825;34;20609;-60
2021/01/08 11:44:13;;;;;;;27.67;13.65;;;;;;;;;;4204137;34;20545;-62
2021/01/08 11:46:39;;;;;;;22.60;13.32;;;;;;;;;;4204187;34;20110;-61
2021/01/08 11:49:05;;;;;;;23.02;13.48;;;;;;;;;;4202564;34;20113;-61
2021/01/08 11:51:31;;;;;;;26.62;13.50;;;;;;;;;;4204113;34;20102;-60
2021/01/08 11:53:57;;;;;;;22.13;13.65;;;;;;;;;;4204020;34;20197;-61
2021/01/08 11:56:27;;;;;;;25.98;15.13;;;;;;;;;;4203947;34;20515;-61
2021/01/08 11:58:53;;;;;;;22.98;12.90;;;;;;;;;;4204177;34;20144;-60
2021/01/08 12:01:22;;;;;;;20.60;11.88;;;;;;;;;;4197335;34;20562;-61
2021/01/08 12:03:48;;;;;;;24.05;12.35;;;;;;;;;;4188389;34;20195;-61
2021/01/08 12:06:14;;;;;;;20.85;11.77;;;;;;;;;;4187802;34;20126;-60
2021/01/08 12:08:40;;;;;;;20.60;11.85;;;;;;;;;;4188761;34;20528;-60
2021/01/08 12:11:06;;;;;;;18.12;12.27;;;;;;;;;;4186013;34;20181;-60
2021/01/08 12:13:32;;;;;;;24.50;12.50;;;;;;;;;;4167847;34;20582;-60
2021/01/08 12:15:58;;;;;;;17.27;11.80;;;;;;;;;;4191991;34;20142;-61
2021/01/08 12:18:24;;;;;;;20.65;11.80;;;;;;;;;;4192337;34;20443;-60
2021/01/08 12:20:50;;;;;;;17.77;12.00;;;;;;;;;;4202658;34;20193;-60
2021/01/08 12:23:16;;;;;;;19.85;12.15;;;;;;;;;;4192077;34;20550;-60
2021/01/08 12:25:42;;;;;;;20.95;12.07;;;;;;;;;;4202515;34;20121;-60
2021/01/08 12:28:11;;;;;;;20.80;12.07;;;;;;;;;;4205895;34;20098;-62
2021/01/08 12:30:38;;;;;;;16.67;11.15;;;;;;;;;;4204159;34;20094;-61
2021/01/08 12:33:04;;;;;;;18.90;11.93;;;;;;;;;;4191963;34;20090;-61
2021/01/08 12:35:30;;;;;;;26.37;12.40;;;;;;;;;;4200106;34;20437;-61
2021/01/08 12:37:56;;;;;;;17.27;11.65;;;;;;;;;;4205699;34;20173;-61
2021/01/08 12:40:23;;;;;;;19.35;12.43;;;;;;;;;;4204114;34;20114;-61
2021/01/08 12:42:49;;;;;;;21.50;13.25;;;;;;;;;;4181583;34;20106;-61
2021/01/08 12:45:16;;;;;;;20.27;12.50;;;;;;;;;;4205538;34;20433;-60
2021/01/08 12:47:42;;;;;;;19.60;13.45;;;;;;;;;;4204325;34;20167;-60
2021/01/08 12:50:08;;;;;;;19.40;13.45;;;;;;;;;;4205089;34;20537;-60
2021/01/08 12:52:34;;;;;;;22.27;14.55;;;;;;;;;;4204318;34;20193;-61
2021/01/08 12:55:00;;;;;;;19.52;12.93;;;;;;;;;;4205493;34;20137;-60
2021/01/08 12:57:26;;;;;;;16.23;12.05;;;;;;;;;;4205569;34;20109;-61
2021/01/08 12:59:52;;;;;;;20.42;12.50;;;;;;;;;;4205627;34;20153;-60
2021/01/08 13:02:18;;;;;;;22.77;13.32;;;;;;;;;;4204308;34;20700;-61
2021/01/08 13:04:44;;;;;;;21.20;13.27;;;;;;;;;;4205488;34;20106;-61
2021/01/08 13:07:10;;;;;;;27.00;14.45;;;;;;;;;;4205662;34;20260;-62
2021/01/08 13:09:36;;;;;;;22.65;14.52;;;;;;;;;;4192914;34;20174;-61
2021/01/08 13:12:02;;;;;;;22.13;14.77;;;;;;;;;;4204493;34;20117;-62
2021/01/08 13:14:28;;;;;;;24.95;13.75;;;;;;;;;;4192608;34;20117;-61
2021/01/08 13:16:57;;;;;;;30.55;14.73;;;;;;;;;;4192471;34;20173;-62
2021/01/08 13:19:23;;;;;;;26.55;14.85;;;;;;;;;;4204123;34;20096;-61
2021/01/08 13:21:50;;;;;;;24.45;15.48;;;;;;;;;;4191531;34;20202;-61
2021/01/08 13:24:16;;;;;;;25.27;14.80;;;;;;;;;;4203697;34;20530;-61
2021/01/08 13:26:42;;;;;;;26.50;14.80;;;;;;;;;;4205366;34;20209;-61
2021/01/08 13:29:09;;;;;;;30.88;16.58;;;;;;;;;;4178026;34;20103;-64
2021/01/08 13:31:35;;;;;;;29.35;15.23;;;;;;;;;;4189106;34;20470;-62
2021/01/08 13:34:00;;;;;;;29.33;16.23;;;;;;;;;;4166154;34;20137;-61
2021/01/08 13:36:26;;;;;;;25.83;15.68;;;;;;;;;;4188957;34;20125;-62
2021/01/08 13:38:53;;;;;;;32.63;17.10;;;;;;;;;;4190852;34;20451;-62
2021/01/08 13:41:19;;;;;;;27.77;16.60;;;;;;;;;;4190658;34;20241;-63
2021/01/08 13:43:45;;;;;;;28.10;16.15;;;;;;;;;;4178071;34;20116;-61
2021/01/08 13:46:11;;;;;;;28.40;13.85;;;;;;;;;;4167276;34;20110;-62
2021/01/08 13:48:39;;;;;;;28.75;15.10;;;;;;;;;;4190112;34;20122;-61
2021/01/08 13:51:05;;;;;;;27.02;14.48;;;;;;;;;;4189992;34;20118;-62
2021/01/08 13:53:31;;;;;;;24.65;13.93;;;;;;;;;;4178904;34;20086;-61
2021/01/08 13:55:57;;;;;;;30.25;14.50;;;;;;;;;;4190262;34;20117;-62
2021/01/08 13:58:23;;;;;;;25.20;15.13;;;;;;;;;;4167087;34;20114;-61
2021/01/08 14:00:49;;;;;;;18.08;13.35;;;;;;;;;;4191320;34;20609;-61
2021/01/08 14:03:16;;;;;;;30.33;14.02;;;;;;;;;;4189912;34;20110;-61
2021/01/08 14:05:42;;;;;;;19.77;14.10;;;;;;;;;;4178315;34;20510;-61
2021/01/08 14:08:08;;;;;;;20.65;13.25;;;;;;;;;;4178547;34;20086;-60
2021/01/08 14:10:34;;;;;;;20.05;12.00;;;;;;;;;;4178772;34;20117;-60
2021/01/08 14:13:01;;;;;;;20.25;12.93;;;;;;;;;;4178498;34;20525;-60
2021/01/08 14:15:28;;;;;;;19.40;12.02;;;;;;;;;;4191432;34;20511;-61
2021/01/08 14:17:54;;;;;;;19.87;11.48;;;;;;;;;;4189909;34;20122;-62
2021/01/08 14:20:20;;;;;;;17.58;11.25;;;;;;;;;;4189799;34;20114;-62
2021/01/08 14:22:46;;;;;;;21.12;11.43;;;;;;;;;;4191102;34;20110;-61
2021/01/08 14:25:12;;;;;;;17.90;11.40;;;;;;;;;;4191231;34;20541;-64
2021/01/08 14:27:38;;;;;;;19.48;10.95;;;;;;;;;;4190001;34;20121;-64
2021/01/08 14:30:05;;;;;;;15.73;11.30;;;;;;;;;;4189592;34;20129;-63